createdAt,value
2018-10-17T00:00:34.758Z,95902.22
2018-10-17T00:03:04.663Z,95904.12
2018-10-17T00:05:34.546Z,95895.91
2018-10-17T00:08:05.345Z,95900.53
2018-10-17T00:10:35.221Z,95901.13
2018-10-17T00:13:05.272Z,95894.82
2018-10-17T00:15:35.051Z,95903.27
2018-10-17T00:18:05.177Z,95900.09
2018-10-17T00:20:35.225Z,95896.74
2018-10-17T00:23:05.088Z,95894.89
2018-10-17T00:25:35.183Z,95891.64
2018-10-17T00:28:05.207Z,95894.92
2018-10-17T00:30:35.149Z,95893.26
2018-10-17T00:33:05.217Z,95905.81
2018-10-17T00:35:35.258Z,95904.19
2018-10-17T00:38:06.473Z,95901.28
2018-10-17T00:40:36.443Z,95899.17
2018-10-17T00:43:06.386Z,95888.25
2018-10-17T00:45:36.323Z,95884.91
2018-10-17T00:48:06.885Z,95886.98
2018-10-17T00:50:36.749Z,95888.97
2018-10-17T00:53:06.679Z,95886.28
2018-10-17T00:55:36.567Z,95881.29
2018-10-17T00:58:07.826Z,95876.42
2018-10-17T01:00:37.733Z,95872.08
2018-10-17T01:03:07.632Z,95869.36
2018-10-17T01:05:37.485Z,95870.06
2018-10-17T01:08:08.474Z,95874.45
2018-10-17T01:10:38.427Z,95878.86
2018-10-17T01:13:08.379Z,95877.75
2018-10-17T01:15:38.236Z,95870.16
2018-10-17T01:18:08.442Z,95869.14
2018-10-17T01:20:38.374Z,95873.66
2018-10-17T01:23:08.498Z,95868.59
2018-10-17T01:25:38.494Z,95868.88
2018-10-17T01:28:09.160Z,95866.69
2018-10-17T01:30:39.046Z,95868.90
2018-10-17T01:33:08.902Z,95858.15
2018-10-17T01:35:38.806Z,95862.98
2018-10-17T01:38:10.143Z,95858.15
2018-10-17T01:40:40.022Z,95858.47
2018-10-17T01:43:10.017Z,95859.00
2018-10-17T01:45:39.897Z,95860.53
2018-10-17T01:48:10.509Z,95861.04
2018-10-17T01:50:40.326Z,95862.50
2018-10-17T01:53:10.341Z,95856.73
2018-10-17T01:55:40.090Z,95852.81
2018-10-17T01:58:09.998Z,95855.04
2018-10-17T02:00:39.946Z,95845.78
2018-10-17T02:03:09.928Z,95845.69
2018-10-17T02:05:39.778Z,95847.16
2018-10-17T02:08:09.644Z,95840.72
2018-10-17T02:10:39.607Z,95837.13
2018-10-17T02:13:09.512Z,95838.89
2018-10-17T02:15:39.488Z,95845.50
2018-10-17T02:18:09.419Z,95838.79
2018-10-17T02:20:39.450Z,95831.96
2018-10-17T02:23:09.538Z,95841.69
2018-10-17T02:25:39.461Z,95838.09
2018-10-17T02:28:09.409Z,95842.62
2018-10-17T02:30:39.300Z,95843.77
2018-10-17T02:33:09.181Z,95838.05
2018-10-17T02:35:39.055Z,95840.30
2018-10-17T02:38:09.015Z,95835.54
2018-10-17T02:40:39.257Z,95831.73
2018-10-17T02:43:09.210Z,95826.74
2018-10-17T02:45:39.103Z,95835.80
2018-10-17T02:48:08.969Z,95830.34
2018-10-17T02:50:38.838Z,95832.14
2018-10-17T02:53:08.753Z,95831.75
2018-10-17T02:55:38.653Z,95824.22
2018-10-17T02:58:08.759Z,95819.30
2018-10-17T03:00:38.717Z,95819.85
2018-10-17T03:03:08.586Z,95814.52
2018-10-17T03:05:38.510Z,95822.58
2018-10-17T03:08:08.601Z,95816.50
2018-10-17T03:10:38.495Z,95824.87
2018-10-17T03:13:08.482Z,95822.50
2018-10-17T03:15:39.542Z,95822.44
2018-10-17T03:18:10.554Z,95830.63
2018-10-17T03:20:40.735Z,95833.29
2018-10-17T03:23:10.477Z,95834.79
2018-10-17T03:25:40.490Z,95823.11
2018-10-17T03:28:10.435Z,95825.56
2018-10-17T03:30:40.333Z,95824.63
2018-10-17T03:33:10.156Z,95833.45
2018-10-17T03:35:40.004Z,95826.84
2018-10-17T03:38:09.864Z,95825.98
2018-10-17T03:40:39.729Z,95818.30
2018-10-17T03:43:10.130Z,95813.19
2018-10-17T03:45:40.049Z,95807.28
2018-10-17T03:48:09.838Z,95813.33
2018-10-17T03:50:39.841Z,95810.30
2018-10-17T03:53:09.809Z,95806.29
2018-10-17T03:55:39.737Z,95809.47
2018-10-17T03:58:09.510Z,95805.97
2018-10-17T04:00:39.513Z,95814.03
2018-10-17T04:03:09.536Z,95811.23
2018-10-17T04:05:39.322Z,95810.50
2018-10-17T04:08:09.393Z,95807.77
2018-10-17T04:10:39.290Z,95804.42
2018-10-17T04:13:09.311Z,95809.27
2018-10-17T04:15:39.207Z,95809.54
2018-10-17T04:18:09.075Z,95809.27
2018-10-17T04:20:39.009Z,95805.78
2018-10-17T04:23:08.878Z,95801.44
2018-10-17T04:25:38.817Z,95798.26
2018-10-17T04:28:08.849Z,95809.77
2018-10-17T04:30:38.687Z,95805.78
2018-10-17T04:33:08.780Z,95802.49
2018-10-17T04:35:38.563Z,95802.49
2018-10-17T04:38:08.683Z,95801.71
2018-10-17T04:40:38.668Z,95808.02
2018-10-17T04:43:08.662Z,95805.48
2018-10-17T04:45:38.823Z,95803.84
2018-10-17T04:48:09.565Z,95809.40
2018-10-17T04:50:39.567Z,95813.67
2018-10-17T04:53:09.573Z,95817.66
2018-10-17T04:55:39.497Z,95819.80
2018-10-17T04:58:10.090Z,95821.34
2018-10-17T05:00:40.029Z,95821.36
2018-10-17T05:03:09.941Z,95820.81
2018-10-17T05:05:39.677Z,95822.12
2018-10-17T05:08:10.571Z,95823.44
2018-10-17T05:10:40.339Z,95827.15
2018-10-17T05:13:10.377Z,95836.73
2018-10-17T05:15:40.320Z,95837.27
2018-10-17T05:18:11.092Z,95836.70
2018-10-17T05:20:41.010Z,95842.28
2018-10-17T05:23:10.929Z,95838.78
2018-10-17T05:25:40.791Z,95836.98
2018-10-17T05:28:11.142Z,95846.59
2018-10-17T05:30:41.020Z,95845.95
2018-10-17T05:33:10.831Z,95848.92
2018-10-17T05:35:40.700Z,95850.70
2018-10-17T05:38:10.722Z,95848.34
2018-10-17T05:40:40.745Z,95843.61
2018-10-17T05:43:10.511Z,95786.30
2018-10-17T05:45:40.750Z,95840.88
2018-10-17T05:48:10.718Z,95833.32
2018-10-17T05:50:40.478Z,95838.33
2018-10-17T05:53:10.343Z,95837.13
2018-10-17T05:55:40.395Z,95842.73
2018-10-17T05:58:10.377Z,95842.25
2018-10-17T06:00:40.290Z,95839.83
2018-10-17T06:03:10.096Z,95839.91
2018-10-17T06:05:40.120Z,95839.67
2018-10-17T06:08:10.118Z,95838.61
2018-10-17T06:10:40.085Z,95835.57
2018-10-17T06:13:10.088Z,95838.81
2018-10-17T06:15:40.116Z,95829.59
2018-10-17T06:18:09.880Z,95828.36
2018-10-17T06:20:39.819Z,95831.71
2018-10-17T06:23:09.796Z,95829.03
2018-10-17T06:25:39.639Z,95826.67
2018-10-17T06:28:09.617Z,95829.73
2018-10-17T06:30:39.691Z,95826.25
2018-10-17T06:33:09.627Z,95821.25
2018-10-17T06:35:39.585Z,95824.84
2018-10-17T06:38:09.514Z,95826.44
2018-10-17T06:40:39.427Z,95822.33
2018-10-17T06:43:09.356Z,95817.09
2018-10-17T06:45:39.172Z,95810.84
2018-10-17T06:48:09.313Z,95808.40
2018-10-17T06:50:39.450Z,95815.98
2018-10-17T06:53:10.805Z,95803.75
2018-10-17T06:55:41.871Z,95804.95
2018-10-17T06:58:13.083Z,95807.48
2018-10-17T07:00:44.240Z,95803.98
2018-10-17T07:03:14.989Z,95793.95
2018-10-17T07:05:45.822Z,95786.20
2018-10-17T07:08:17.335Z,95792.48
2018-10-17T07:10:48.041Z,95792.23
2018-10-17T07:13:19.228Z,95794.47
2018-10-17T07:15:50.199Z,95799.66
2018-10-17T07:18:21.543Z,95797.24
2018-10-17T07:20:52.606Z,95795.06
2018-10-17T07:23:23.292Z,95789.18
2018-10-17T07:25:53.926Z,95793.78
2018-10-17T07:28:25.360Z,95793.94
2018-10-17T07:30:57.023Z,95797.77
2018-10-17T07:33:27.856Z,95787.95
2018-10-17T07:35:58.567Z,95788.41
2018-10-17T07:38:29.462Z,95790.31
2018-10-17T07:41:00.933Z,95782.16
2018-10-17T07:43:31.446Z,95776.59
2018-10-17T07:46:01.209Z,95778.98
2018-10-17T07:48:31.619Z,95771.89
2018-10-17T07:51:01.518Z,95768.95
2018-10-17T07:53:32.068Z,95772.89
2018-10-17T07:56:02.611Z,95761.41
2018-10-17T07:58:32.542Z,95759.84
2018-10-17T08:01:02.308Z,95757.53
2018-10-17T08:03:32.079Z,95758.55
2018-10-17T08:06:01.939Z,95750.58
2018-10-17T08:08:31.675Z,95748.20
2018-10-17T08:11:01.393Z,95703.11
2018-10-17T08:13:31.255Z,95738.42
2018-10-17T08:16:01.010Z,95733.38
2018-10-17T08:18:31.037Z,95721.84
2018-10-17T08:21:00.899Z,95726.80
2018-10-17T08:23:30.685Z,95716.30
2018-10-17T08:26:00.463Z,95711.64
2018-10-17T08:28:30.235Z,95708.81
2018-10-17T08:31:00.030Z,95704.84
2018-10-17T08:33:29.878Z,95698.78
2018-10-17T08:36:00.045Z,95697.62
2018-10-17T08:38:29.837Z,95692.79
2018-10-17T08:40:59.638Z,95694.25
2018-10-17T08:43:29.470Z,95686.15
2018-10-17T08:45:59.387Z,95679.33
2018-10-17T08:48:29.224Z,95685.27
2018-10-17T08:50:59.437Z,95677.77
2018-10-17T08:53:29.229Z,95669.98
2018-10-17T08:55:58.983Z,95670.95
2018-10-17T08:58:28.849Z,95664.92
2018-10-17T09:00:58.746Z,95660.34
2018-10-17T09:03:28.514Z,95661.80
2018-10-17T09:05:58.307Z,95653.55
2018-10-17T09:08:27.999Z,95644.53
2018-10-17T09:10:57.712Z,95643.38
2018-10-17T09:13:27.584Z,95640.20
2018-10-17T09:15:57.470Z,95639.91
2018-10-17T09:18:27.278Z,95640.13
2018-10-17T09:20:57.570Z,95634.84
2018-10-17T09:23:26.913Z,95627.11
2018-10-17T09:25:56.629Z,95621.46
2018-10-17T09:28:26.275Z,95624.95
2018-10-17T09:30:56.017Z,95614.77
2018-10-17T09:33:25.736Z,95613.66
2018-10-17T09:35:55.770Z,95609.49
2018-10-17T09:38:25.620Z,95616.31
2018-10-17T09:40:55.445Z,95598.81
2018-10-17T09:43:25.252Z,95598.85
2018-10-17T09:45:55.101Z,95593.58
2018-10-17T09:48:24.928Z,95596.18
2018-10-17T09:50:54.814Z,95594.13
2018-10-17T09:53:25.039Z,95586.64
2018-10-17T09:55:54.857Z,95581.14
2018-10-17T09:58:24.772Z,95569.55
2018-10-17T10:01:00.023Z,95565.33
2018-10-17T10:03:29.900Z,95568.30
2018-10-17T10:05:59.884Z,95565.45
2018-10-17T10:08:30.585Z,95558.37
2018-10-17T10:11:00.524Z,95557.23
2018-10-17T10:13:30.362Z,95552.95
2018-10-17T10:16:00.559Z,95546.66
2018-10-17T10:18:30.923Z,95543.88
2018-10-17T10:21:00.968Z,95540.19
2018-10-17T10:23:30.873Z,95532.68
2018-10-17T10:26:00.654Z,95535.81
2018-10-17T10:28:30.503Z,95529.21
2018-10-17T10:31:00.264Z,95528.92
2018-10-17T10:33:30.000Z,95522.59
2018-10-17T10:35:59.888Z,95519.29
2018-10-17T10:38:29.632Z,95508.78
2018-10-17T10:40:59.531Z,95504.77
2018-10-17T10:43:29.414Z,95500.23
2018-10-17T10:45:59.242Z,95497.91
2018-10-17T10:48:29.397Z,95490.13
2018-10-17T10:50:59.211Z,95488.36
2018-10-17T10:53:29.045Z,95482.91
2018-10-17T10:55:58.839Z,95472.97
2018-10-17T10:58:29.002Z,95475.58
2018-10-17T11:00:58.865Z,95467.23
2018-10-17T11:03:28.673Z,95463.08
2018-10-17T11:05:58.492Z,95460.49
2018-10-17T11:08:28.298Z,95461.14
2018-10-17T11:10:58.108Z,95457.59
2018-10-17T11:13:27.939Z,95454.83
2018-10-17T11:15:57.766Z,95445.63
2018-10-17T11:18:27.661Z,95437.90
2018-10-17T11:20:57.513Z,95450.17
2018-10-17T11:23:27.671Z,95442.11
2018-10-17T11:25:57.507Z,95365.23
2018-10-17T11:28:27.440Z,95436.09
2018-10-17T11:30:57.238Z,95438.30
2018-10-17T11:33:27.061Z,95438.00
2018-10-17T11:35:56.806Z,95431.12
2018-10-17T11:38:26.692Z,95428.25
2018-10-17T11:40:56.540Z,95437.77
2018-10-17T11:43:26.343Z,95432.03
2018-10-17T11:45:56.070Z,95431.05
2018-10-17T11:48:25.926Z,95421.42
2018-10-17T11:50:55.720Z,95413.02
2018-10-17T11:53:25.498Z,95417.91
2018-10-17T11:55:55.415Z,95420.13
2018-10-17T11:58:25.178Z,95418.22
2018-10-17T12:00:55.101Z,95411.30
2018-10-17T12:03:24.963Z,95409.14
2018-10-17T12:05:55.008Z,95413.05
2018-10-17T12:08:24.704Z,95412.25
2018-10-17T12:10:54.621Z,95408.55
2018-10-17T12:13:24.288Z,95403.57
2018-10-17T12:15:54.150Z,95404.23
2018-10-17T12:18:23.975Z,95398.84
2018-10-17T12:20:53.893Z,95394.70
2018-10-17T12:23:23.662Z,95394.21
2018-10-17T12:25:53.581Z,95398.33
2018-10-17T12:28:23.457Z,95403.23
2018-10-17T12:30:53.195Z,95398.18
2018-10-17T12:33:22.903Z,95394.80
2018-10-17T12:35:52.695Z,95392.89
2018-10-17T12:38:22.551Z,95391.27
2018-10-17T12:40:52.499Z,95394.74
2018-10-17T12:43:22.233Z,95395.92
2018-10-17T12:45:52.048Z,95394.19
2018-10-17T12:48:21.771Z,95394.52
2018-10-17T12:50:51.642Z,95393.73
2018-10-17T12:53:21.729Z,95388.98
2018-10-17T12:55:51.650Z,95391.69
2018-10-17T12:58:21.502Z,95397.26
2018-10-17T13:00:51.254Z,95395.56
2018-10-17T13:03:21.133Z,95391.14
2018-10-17T13:05:50.967Z,95389.52
2018-10-17T13:08:22.237Z,95389.54
2018-10-17T13:10:52.565Z,95390.13
2018-10-17T13:13:22.927Z,95389.92
2018-10-17T13:15:52.937Z,95392.66
2018-10-17T13:18:24.115Z,95390.52
2018-10-17T13:20:54.622Z,95390.45
2018-10-17T13:23:25.319Z,95394.77
2018-10-17T13:25:56.043Z,95400.23
2018-10-17T13:28:26.500Z,95396.11
2018-10-17T13:30:56.337Z,95390.66
2018-10-17T13:33:26.119Z,95392.73
2018-10-17T13:35:55.926Z,95394.62
2018-10-17T13:38:25.738Z,95389.15
2018-10-17T13:40:55.525Z,95391.07
2018-10-17T13:43:25.411Z,95393.23
2018-10-17T13:45:55.216Z,95394.94
2018-10-17T13:48:25.711Z,95390.17
2018-10-17T13:50:56.447Z,95385.78
2018-10-17T13:53:27.184Z,95386.95
2018-10-17T13:55:57.842Z,95381.47
2018-10-17T13:58:29.026Z,95384.61
2018-10-17T14:00:59.729Z,95381.21
2018-10-17T14:03:30.249Z,95392.78
2018-10-17T14:06:00.792Z,95383.25
2018-10-17T14:08:32.018Z,95385.41
2018-10-17T14:11:02.477Z,95380.68
2018-10-17T14:13:33.333Z,95384.33
2018-10-17T14:16:03.954Z,95377.77
2018-10-17T14:18:34.500Z,95381.28
2018-10-17T14:21:05.018Z,95378.17
2018-10-17T14:23:35.314Z,95378.27
2018-10-17T14:26:06.606Z,95383.84
2018-10-17T14:28:38.461Z,95382.61
2018-10-17T14:31:09.253Z,95393.38
2018-10-17T14:33:40.190Z,95388.83
2018-10-17T14:36:10.430Z,95387.10
2018-10-17T14:38:42.576Z,95385.97
2018-10-17T14:41:13.370Z,95386.04
2018-10-17T14:43:43.799Z,95388.75
2018-10-17T14:46:13.826Z,95387.30
2018-10-17T14:48:44.510Z,95385.76
2018-10-17T14:51:14.641Z,95391.59
2018-10-17T14:53:44.562Z,95392.97
2018-10-17T14:56:14.503Z,95386.97
2018-10-17T14:58:44.760Z,95389.91
2018-10-17T15:01:15.913Z,95385.80
2018-10-17T15:03:47.189Z,95388.84
2018-10-17T15:06:17.927Z,95393.23
2018-10-17T15:08:49.189Z,95397.83
2018-10-17T15:11:20.210Z,95397.25
2018-10-17T15:13:50.940Z,95405.00
2018-10-17T15:16:22.269Z,95403.14
2018-10-17T15:18:53.726Z,95411.16
2018-10-17T15:21:23.633Z,95411.56
2018-10-17T15:23:53.621Z,95415.22
2018-10-17T15:26:23.769Z,95423.36
2018-10-17T15:28:54.787Z,95424.31
2018-10-17T15:31:24.785Z,95426.73
2018-10-17T15:33:54.797Z,95429.83
2018-10-17T15:36:24.658Z,95433.95
2018-10-17T15:38:55.350Z,95430.97
2018-10-17T15:41:25.268Z,95434.29
2018-10-17T15:43:55.225Z,95440.97
2018-10-17T15:46:25.330Z,95444.31
2018-10-17T15:48:56.269Z,95444.72
2018-10-17T15:51:26.255Z,95445.94
2018-10-17T15:53:56.240Z,95452.14
2018-10-17T15:56:26.512Z,95452.38
2018-10-17T15:58:57.278Z,95455.59
2018-10-17T16:01:27.258Z,95461.41
2018-10-17T16:03:57.192Z,95466.10
2018-10-17T16:06:27.206Z,95471.91
2018-10-17T16:08:58.364Z,95473.30
2018-10-17T16:11:28.415Z,95483.58
2018-10-17T16:13:58.757Z,95482.11
2018-10-17T16:16:28.795Z,95487.98
2018-10-17T16:18:59.255Z,95491.34
2018-10-17T16:21:29.292Z,95497.43
2018-10-17T16:23:59.294Z,95499.91
2018-10-17T16:26:29.680Z,95502.61
2018-10-17T16:29:00.052Z,95505.36
2018-10-17T16:31:30.093Z,95515.06
2018-10-17T16:34:00.170Z,95515.27
2018-10-17T16:36:30.266Z,95523.48
2018-10-17T16:39:00.650Z,95524.88
2018-10-17T16:41:30.711Z,95523.12
2018-10-17T16:44:00.877Z,95533.66
2018-10-17T16:46:30.914Z,95531.78
2018-10-17T16:49:01.361Z,95536.92
2018-10-17T16:51:31.462Z,95536.88
2018-10-17T16:54:01.543Z,95546.42
2018-10-17T16:56:31.577Z,95542.37
2018-10-17T16:59:02.422Z,95546.15
2018-10-17T17:01:32.372Z,95540.52
2018-10-17T17:04:02.367Z,95539.11
2018-10-17T17:06:32.293Z,95539.28
2018-10-17T17:09:03.012Z,95539.16
2018-10-17T17:11:33.072Z,95536.81
2018-10-17T17:14:03.147Z,95539.50
2018-10-17T17:16:33.170Z,95540.53
2018-10-17T17:19:03.898Z,95539.66
2018-10-17T17:21:34.738Z,95542.29
2018-10-17T17:24:04.840Z,95542.72
2018-10-17T17:26:34.982Z,95549.39
2018-10-17T17:29:06.762Z,95545.80
2018-10-17T17:31:36.756Z,95544.37
2018-10-17T17:34:07.248Z,95546.00
2018-10-17T17:36:37.302Z,95546.28
2018-10-17T17:39:09.441Z,95549.14
2018-10-17T17:41:39.383Z,95550.23
2018-10-17T17:44:09.374Z,95549.11
2018-10-17T17:46:39.482Z,95545.48
2018-10-17T17:49:09.534Z,95546.41
2018-10-17T17:51:39.542Z,95547.89
2018-10-17T17:54:09.462Z,95549.23
2018-10-17T17:56:39.375Z,95554.44
2018-10-17T17:59:09.368Z,95551.53
2018-10-17T18:01:39.372Z,95561.81
2018-10-17T18:04:09.343Z,95561.50
2018-10-17T18:06:39.384Z,95561.50
2018-10-17T18:09:12.206Z,95564.37
2018-10-17T18:11:42.127Z,95571.01
2018-10-17T18:14:12.054Z,95569.57
2018-10-17T18:16:42.069Z,95570.77
2018-10-17T18:19:12.511Z,95578.99
2018-10-17T18:21:42.438Z,95577.64
2018-10-17T18:24:12.521Z,95581.56
2018-10-17T18:26:42.852Z,95583.91
2018-10-17T18:29:13.032Z,95585.73
2018-10-17T18:31:42.961Z,95584.42
2018-10-17T18:34:12.888Z,95587.28
2018-10-17T18:36:42.991Z,95579.33
2018-10-17T18:39:12.945Z,95580.23
2018-10-17T18:41:42.952Z,95586.41
2018-10-17T18:44:13.013Z,95582.53
2018-10-17T18:46:43.121Z,95581.90
2018-10-17T18:49:13.783Z,95587.12
2018-10-17T18:51:43.677Z,95587.62
2018-10-17T18:54:13.630Z,95591.24
2018-10-17T18:56:43.648Z,95593.88
2018-10-17T18:59:14.695Z,95605.59
2018-10-17T19:01:44.705Z,95595.47
2018-10-17T19:04:14.764Z,95597.20
2018-10-17T19:06:44.764Z,95603.91
2018-10-17T19:09:15.726Z,95604.78
2018-10-17T19:11:45.802Z,95607.84
2018-10-17T19:14:15.877Z,95610.94
2018-10-17T19:16:45.778Z,95612.59
2018-10-17T19:19:15.644Z,95610.53
2018-10-17T19:21:45.511Z,95616.91
2018-10-17T19:24:15.418Z,95615.75
2018-10-17T19:26:45.678Z,95625.07
2018-10-17T19:29:15.936Z,95627.61
2018-10-17T19:31:45.858Z,95633.75
2018-10-17T19:34:15.785Z,95626.64
2018-10-17T19:36:45.750Z,95386.61
2018-10-17T19:39:15.667Z,95632.31
2018-10-17T19:41:45.601Z,95636.95
2018-10-17T19:44:15.524Z,95548.27
2018-10-17T19:46:45.401Z,95630.94
2018-10-17T19:49:15.450Z,95637.84
2018-10-17T19:51:45.288Z,95633.54
2018-10-17T19:54:15.175Z,95638.80
2018-10-17T19:56:45.726Z,95646.50
2018-10-17T19:59:15.672Z,95642.61
2018-10-17T20:01:45.440Z,95643.38
2018-10-17T20:04:15.286Z,95644.64
2018-10-17T20:06:45.258Z,95644.75
2018-10-17T20:09:15.178Z,95648.89
2018-10-17T20:11:45.230Z,95642.43
2018-10-17T20:14:15.167Z,95653.50
2018-10-17T20:16:45.008Z,95650.13
2018-10-17T20:19:14.865Z,95655.47
2018-10-17T20:21:44.767Z,95654.44
2018-10-17T20:24:14.798Z,95660.02
2018-10-17T20:26:44.771Z,95663.20
2018-10-17T20:29:15.344Z,95669.30
2018-10-17T20:31:45.422Z,95670.09
2018-10-17T20:34:15.330Z,95670.21
2018-10-17T20:36:45.306Z,95669.67
2018-10-17T20:39:16.055Z,95673.50
2018-10-17T20:41:45.965Z,95668.00
2018-10-17T20:44:16.057Z,95662.06
2018-10-17T20:46:45.893Z,95661.94
2018-10-17T20:49:16.276Z,95670.09
2018-10-17T20:51:46.219Z,95661.16
2018-10-17T20:54:16.119Z,95656.59
2018-10-17T20:56:46.086Z,95658.06
2018-10-17T20:59:17.007Z,95653.16
2018-10-17T21:01:47.091Z,95656.25
2018-10-17T21:04:16.957Z,95659.66
2018-10-17T21:06:46.906Z,95659.77
2018-10-17T21:09:17.701Z,95654.58
2018-10-17T21:11:47.661Z,95649.89
2018-10-17T21:14:17.580Z,95645.14
2018-10-17T21:16:47.490Z,95645.45
2018-10-17T21:19:18.371Z,95644.05
2018-10-17T21:21:48.182Z,95644.11
2018-10-17T21:24:18.122Z,95638.69
2018-10-17T21:26:48.161Z,95632.47
2018-10-17T21:29:18.743Z,95637.48
2018-10-17T21:31:48.802Z,95640.21
2018-10-17T21:34:18.931Z,95645.48
2018-10-17T21:36:48.768Z,95639.58
2018-10-17T21:39:18.877Z,95642.78
2018-10-17T21:41:48.691Z,95639.86
2018-10-17T21:44:18.588Z,95647.66
2018-10-17T21:46:48.492Z,95643.77
2018-10-17T21:49:18.401Z,95653.72
2018-10-17T21:51:48.324Z,95652.75
2018-10-17T21:54:18.205Z,95649.68
2018-10-17T21:56:48.152Z,95556.64
2018-10-17T21:59:18.100Z,95652.18
2018-10-17T22:01:48.011Z,95653.34
2018-10-17T22:04:17.976Z,95653.09
2018-10-17T22:06:47.770Z,95648.95
2018-10-17T22:09:17.671Z,95647.45
2018-10-17T22:11:47.634Z,95641.26
2018-10-17T22:14:17.714Z,95642.16
2018-10-17T22:16:52.670Z,95640.89
2018-10-17T22:19:22.877Z,95636.59
2018-10-17T22:21:52.791Z,95640.35
2018-10-17T22:24:22.854Z,95633.23
2018-10-17T22:26:52.674Z,95635.80
2018-10-17T22:29:23.127Z,95635.85
2018-10-17T22:31:53.243Z,95638.32
2018-10-17T22:34:23.183Z,95636.93
2018-10-17T22:36:53.126Z,95635.59
2018-10-17T22:39:23.655Z,95636.98
2018-10-17T22:41:53.543Z,95631.89
2018-10-17T22:44:23.493Z,95631.58
2018-10-17T22:46:53.422Z,95632.30
2018-10-17T22:49:24.404Z,95625.45
2018-10-17T22:51:54.238Z,95627.53
2018-10-17T22:54:24.124Z,95618.30
2018-10-17T22:56:54.066Z,95612.03
2018-10-17T22:59:24.283Z,95615.99
2018-10-17T23:01:54.398Z,95614.75
2018-10-17T23:04:24.362Z,95621.23
2018-10-17T23:06:54.252Z,95611.82
2018-10-17T23:09:24.968Z,95619.38
2018-10-17T23:11:54.906Z,95614.50
2018-10-17T23:14:24.977Z,95614.25
2018-10-17T23:16:54.901Z,95614.23
2018-10-17T23:19:25.610Z,95616.58
2018-10-17T23:21:55.610Z,95620.41
2018-10-17T23:24:25.499Z,95618.61
2018-10-17T23:26:55.359Z,95622.76
2018-10-17T23:29:26.174Z,95622.08
2018-10-17T23:31:56.173Z,95627.78
2018-10-17T23:34:26.052Z,95623.75
2018-10-17T23:36:55.941Z,95624.30
2018-10-17T23:39:25.971Z,95620.84
2018-10-17T23:41:55.960Z,95621.66
2018-10-17T23:44:25.920Z,95620.97
2018-10-17T23:46:55.742Z,95620.97
2018-10-17T23:49:25.633Z,95628.63
2018-10-17T23:51:55.537Z,95617.33
2018-10-17T23:54:25.495Z,95619.74
2018-10-17T23:56:55.340Z,95619.33
2018-10-17T23:59:25.234Z,95616.76
